sensor_id;sensor_type;location;lat;lon;timestamp;P1;durP1;ratioP1;P2;durP2;ratioP2
14613;SDS011;7393;51.446;6.800;2023-07-02T00:01:44;5.10;;;2.83;;
14613;SDS011;7393;51.446;6.800;2023-07-02T00:04:11;6.67;;;3.27;;
14613;SDS011;7393;51.446;6.800;2023-07-02T00:06:41;4.53;;;2.73;;
14613;SDS011;7393;51.446;6.800;2023-07-02T00:09:10;4.17;;;2.80;;
14613;SDS011;7393;51.446;6.800;2023-07-02T00:11:37;4.20;;;2.87;;
14613;SDS011;7393;51.446;6.800;2023-07-02T00:14:05;5.07;;;3.20;;
14613;SDS011;7393;51.446;6.800;2023-07-02T00:16:32;6.17;;;2.93;;
14613;SDS011;7393;51.446;6.800;2023-07-02T00:18:59;6.33;;;3.20;;
14613;SDS011;7393;51.446;6.800;2023-07-02T00:21:26;6.33;;;3.30;;
14613;SDS011;7393;51.446;6.800;2023-07-02T00:23:54;4.37;;;3.00;;
14613;SDS011;7393;51.446;6.800;2023-07-02T00:26:23;5.23;;;3.10;;
14613;SDS011;7393;51.446;6.800;2023-07-02T00:28:50;5.50;;;3.30;;
14613;SDS011;7393;51.446;6.800;2023-07-02T00:31:17;6.57;;;2.90;;
14613;SDS011;7393;51.446;6.800;2023-07-02T00:33:44;5.80;;;3.70;;
14613;SDS011;7393;51.446;6.800;2023-07-02T00:36:10;5.83;;;3.40;;
14613;SDS011;7393;51.446;6.800;2023-07-02T00:38:40;6.13;;;3.60;;
14613;SDS011;7393;51.446;6.800;2023-07-02T00:41:07;4.83;;;3.20;;
14613;SDS011;7393;51.446;6.800;2023-07-02T00:43:35;4.63;;;3.40;;
14613;SDS011;7393;51.446;6.800;2023-07-02T00:46:04;6.27;;;3.20;;
14613;SDS011;7393;51.446;6.800;2023-07-02T00:48:31;7.93;;;3.40;;
14613;SDS011;7393;51.446;6.800;2023-07-02T00:50:59;6.03;;;3.47;;
14613;SDS011;7393;51.446;6.800;2023-07-02T00:53:26;8.13;;;3.83;;
14613;SDS011;7393;51.446;6.800;2023-07-02T00:55:53;7.00;;;3.60;;
14613;SDS011;7393;51.446;6.800;2023-07-02T00:58:20;6.90;;;3.70;;
14613;SDS011;7393;51.446;6.800;2023-07-02T01:00:48;8.40;;;4.10;;
14613;SDS011;7393;51.446;6.800;2023-07-02T01:03:15;10.00;;;4.33;;
14613;SDS011;7393;51.446;6.800;2023-07-02T01:05:42;8.60;;;4.67;;
14613;SDS011;7393;51.446;6.800;2023-07-02T01:08:09;5.73;;;4.27;;
14613;SDS011;7393;51.446;6.800;2023-07-02T01:10:37;4.50;;;3.40;;
14613;SDS011;7393;51.446;6.800;2023-07-02T01:13:04;7.83;;;3.83;;
14613;SDS011;7393;51.446;6.800;2023-07-02T01:15:34;9.73;;;3.90;;
14613;SDS011;7393;51.446;6.800;2023-07-02T01:18:04;5.53;;;3.43;;
14613;SDS011;7393;51.446;6.800;2023-07-02T01:20:33;6.10;;;3.93;;
14613;SDS011;7393;51.446;6.800;2023-07-02T01:23:02;5.00;;;3.70;;
14613;SDS011;7393;51.446;6.800;2023-07-02T01:25:29;6.63;;;3.53;;
14613;SDS011;7393;51.446;6.800;2023-07-02T01:27:56;7.13;;;3.90;;
14613;SDS011;7393;51.446;6.800;2023-07-02T01:30:24;6.90;;;4.10;;
14613;SDS011;7393;51.446;6.800;2023-07-02T01:32:51;7.73;;;4.07;;
14613;SDS011;7393;51.446;6.800;2023-07-02T01:35:18;6.00;;;3.83;;
14613;SDS011;7393;51.446;6.800;2023-07-02T01:37:46;6.37;;;4.03;;
14613;SDS011;7393;51.446;6.800;2023-07-02T01:40:13;7.90;;;3.90;;
14613;SDS011;7393;51.446;6.800;2023-07-02T01:42:40;7.13;;;4.10;;
14613;SDS011;7393;51.446;6.800;2023-07-02T01:45:07;7.03;;;3.87;;
14613;SDS011;7393;51.446;6.800;2023-07-02T01:47:34;8.57;;;4.00;;
14613;SDS011;7393;51.446;6.800;2023-07-02T01:50:02;7.93;;;4.13;;
14613;SDS011;7393;51.446;6.800;2023-07-02T01:52:30;8.07;;;4.23;;
14613;SDS011;7393;51.446;6.800;2023-07-02T01:55:00;8.67;;;4.60;;
14613;SDS011;7393;51.446;6.800;2023-07-02T01:57:27;8.17;;;4.87;;
14613;SDS011;7393;51.446;6.800;2023-07-02T01:59:55;10.63;;;5.13;;
14613;SDS011;7393;51.446;6.800;2023-07-02T02:02:22;9.37;;;5.40;;
14613;SDS011;7393;51.446;6.800;2023-07-02T02:04:48;10.03;;;5.27;;
14613;SDS011;7393;51.446;6.800;2023-07-02T02:07:15;11.63;;;4.97;;
14613;SDS011;7393;51.446;6.800;2023-07-02T02:09:42;10.90;;;6.00;;
14613;SDS011;7393;51.446;6.800;2023-07-02T02:12:10;10.27;;;5.50;;
14613;SDS011;7393;51.446;6.800;2023-07-02T02:14:39;13.07;;;5.90;;
14613;SDS011;7393;51.446;6.800;2023-07-02T02:17:06;10.93;;;5.97;;
14613;SDS011;7393;51.446;6.800;2023-07-02T02:19:32;14.87;;;5.70;;
14613;SDS011;7393;51.446;6.800;2023-07-02T02:21:59;11.57;;;6.30;;
14613;SDS011;7393;51.446;6.800;2023-07-02T02:24:26;9.17;;;6.20;;
14613;SDS011;7393;51.446;6.800;2023-07-02T02:26:53;11.20;;;5.73;;
14613;SDS011;7393;51.446;6.800;2023-07-02T02:29:21;11.03;;;6.10;;
14613;SDS011;7393;51.446;6.800;2023-07-02T02:31:48;13.43;;;6.60;;
14613;SDS011;7393;51.446;6.800;2023-07-02T02:34:14;9.40;;;6.57;;
14613;SDS011;7393;51.446;6.800;2023-07-02T02:36:41;10.83;;;7.13;;
14613;SDS011;7393;51.446;6.800;2023-07-02T02:39:08;11.43;;;6.30;;
14613;SDS011;7393;51.446;6.800;2023-07-02T02:41:35;13.83;;;7.17;;
14613;SDS011;7393;51.446;6.800;2023-07-02T02:44:02;12.20;;;6.70;;
14613;SDS011;7393;51.446;6.800;2023-07-02T02:46:30;13.63;;;6.87;;
14613;SDS011;7393;51.446;6.800;2023-07-02T02:48:57;15.93;;;7.30;;
14613;SDS011;7393;51.446;6.800;2023-07-02T02:51:24;13.23;;;7.10;;
14613;SDS011;7393;51.446;6.800;2023-07-02T02:53:51;11.30;;;6.83;;
14613;SDS011;7393;51.446;6.800;2023-07-02T02:56:18;15.03;;;7.43;;
14613;SDS011;7393;51.446;6.800;2023-07-02T02:58:44;13.00;;;8.27;;
14613;SDS011;7393;51.446;6.800;2023-07-02T03:01:11;13.40;;;7.67;;
14613;SDS011;7393;51.446;6.800;2023-07-02T03:03:41;15.33;;;8.13;;
14613;SDS011;7393;51.446;6.800;2023-07-02T03:06:10;16.07;;;8.20;;
14613;SDS011;7393;51.446;6.800;2023-07-02T03:08:39;11.23;;;7.37;;
14613;SDS011;7393;51.446;6.800;2023-07-02T03:11:06;14.57;;;7.87;;
14613;SDS011;7393;51.446;6.800;2023-07-02T03:13:32;13.73;;;7.90;;
14613;SDS011;7393;51.446;6.800;2023-07-02T03:15:59;15.83;;;8.63;;
14613;SDS011;7393;51.446;6.800;2023-07-02T03:18:26;17.73;;;8.70;;
14613;SDS011;7393;51.446;6.800;2023-07-02T03:20:54;16.27;;;8.63;;
14613;SDS011;7393;51.446;6.800;2023-07-02T03:23:21;18.93;;;9.10;;
14613;SDS011;7393;51.446;6.800;2023-07-02T03:25:48;17.50;;;9.10;;
14613;SDS011;7393;51.446;6.800;2023-07-02T03:28:15;15.17;;;9.00;;
14613;SDS011;7393;51.446;6.800;2023-07-02T03:30:41;16.80;;;8.30;;
14613;SDS011;7393;51.446;6.800;2023-07-02T03:33:08;19.10;;;9.07;;
14613;SDS011;7393;51.446;6.800;2023-07-02T03:35:35;18.23;;;10.20;;
14613;SDS011;7393;51.446;6.800;2023-07-02T03:38:06;17.60;;;9.10;;
14613;SDS011;7393;51.446;6.800;2023-07-02T03:40:33;17.30;;;9.30;;
14613;SDS011;7393;51.446;6.800;2023-07-02T03:43:00;18.20;;;10.17;;
14613;SDS011;7393;51.446;6.800;2023-07-02T03:45:27;17.37;;;9.77;;
14613;SDS011;7393;51.446;6.800;2023-07-02T03:47:53;16.47;;;10.10;;
14613;SDS011;7393;51.446;6.800;2023-07-02T03:50:20;18.37;;;9.97;;
14613;SDS011;7393;51.446;6.800;2023-07-02T03:52:47;22.07;;;10.57;;
14613;SDS011;7393;51.446;6.800;2023-07-02T03:55:15;17.73;;;9.70;;
14613;SDS011;7393;51.446;6.800;2023-07-02T03:57:43;18.70;;;10.77;;
14613;SDS011;7393;51.446;6.800;2023-07-02T04:00:10;21.87;;;10.60;;
14613;SDS011;7393;51.446;6.800;2023-07-02T04:02:37;18.43;;;10.63;;
14613;SDS011;7393;51.446;6.800;2023-07-02T04:05:04;21.30;;;10.90;;
14613;SDS011;7393;51.446;6.800;2023-07-02T04:07:32;18.23;;;10.73;;
14613;SDS011;7393;51.446;6.800;2023-07-02T04:09:58;22.37;;;11.60;;
14613;SDS011;7393;51.446;6.800;2023-07-02T04:12:27;16.10;;;10.30;;
14613;SDS011;7393;51.446;6.800;2023-07-02T04:14:54;20.70;;;11.23;;
14613;SDS011;7393;51.446;6.800;2023-07-02T04:17:21;17.37;;;11.17;;
14613;SDS011;7393;51.446;6.800;2023-07-02T04:19:47;18.83;;;10.97;;
14613;SDS011;7393;51.446;6.800;2023-07-02T04:22:15;17.17;;;10.80;;
14613;SDS011;7393;51.446;6.800;2023-07-02T04:24:43;20.90;;;10.93;;
14613;SDS011;7393;51.446;6.800;2023-07-02T04:27:10;24.17;;;12.63;;
14613;SDS011;7393;51.446;6.800;2023-07-02T04:29:39;22.07;;;11.87;;
14613;SDS011;7393;51.446;6.800;2023-07-02T04:32:06;19.67;;;11.93;;
14613;SDS011;7393;51.446;6.800;2023-07-02T04:34:34;25.40;;;11.80;;
14613;SDS011;7393;51.446;6.800;2023-07-02T04:37:01;23.03;;;11.43;;
14613;SDS011;7393;51.446;6.800;2023-07-02T04:39:28;20.23;;;12.03;;
14613;SDS011;7393;51.446;6.800;2023-07-02T04:41:55;22.77;;;11.90;;
14613;SDS011;7393;51.446;6.800;2023-07-02T04:44:21;23.30;;;12.43;;
14613;SDS011;7393;51.446;6.800;2023-07-02T04:46:56;23.27;;;11.93;;
14613;SDS011;7393;51.446;6.800;2023-07-02T04:49:24;25.17;;;12.67;;
14613;SDS011;7393;51.446;6.800;2023-07-02T04:51:51;18.10;;;12.67;;
14613;SDS011;7393;51.446;6.800;2023-07-02T04:54:18;22.40;;;11.73;;
14613;SDS011;7393;51.446;6.800;2023-07-02T04:56:45;19.03;;;12.43;;
14613;SDS011;7393;51.446;6.800;2023-07-02T04:59:13;19.97;;;11.53;;
14613;SDS011;7393;51.446;6.800;2023-07-02T05:01:39;21.83;;;11.87;;
14613;SDS011;7393;51.446;6.800;2023-07-02T05:04:09;21.83;;;12.97;;
14613;SDS011;7393;51.446;6.800;2023-07-02T05:06:35;21.03;;;12.73;;
14613;SDS011;7393;51.446;6.800;2023-07-02T05:09:02;25.33;;;12.83;;
14613;SDS011;7393;51.446;6.800;2023-07-02T05:11:29;20.53;;;12.70;;
14613;SDS011;7393;51.446;6.800;2023-07-02T05:13:56;17.87;;;11.70;;
14613;SDS011;7393;51.446;6.800;2023-07-02T05:16:23;20.17;;;12.90;;
14613;SDS011;7393;51.446;6.800;2023-07-02T05:18:49;25.87;;;12.70;;
14613;SDS011;7393;51.446;6.800;2023-07-02T05:21:18;20.53;;;12.87;;
14613;SDS011;7393;51.446;6.800;2023-07-02T05:23:46;22.10;;;13.20;;
14613;SDS011;7393;51.446;6.800;2023-07-02T05:26:13;22.63;;;13.13;;
14613;SDS011;7393;51.446;6.800;2023-07-02T05:28:40;24.63;;;12.93;;
14613;SDS011;7393;51.446;6.800;2023-07-02T05:31:07;21.30;;;12.40;;
14613;SDS011;7393;51.446;6.800;2023-07-02T05:33:33;27.20;;;13.47;;
14613;SDS011;7393;51.446;6.800;2023-07-02T05:36:00;23.07;;;13.30;;
14613;SDS011;7393;51.446;6.800;2023-07-02T05:38:28;23.90;;;12.83;;
14613;SDS011;7393;51.446;6.800;2023-07-02T05:40:55;28.40;;;13.53;;
14613;SDS011;7393;51.446;6.800;2023-07-02T05:43:22;21.63;;;13.40;;
14613;SDS011;7393;51.446;6.800;2023-07-02T05:45:50;21.60;;;13.47;;
14613;SDS011;7393;51.446;6.800;2023-07-02T05:48:17;23.27;;;13.70;;
14613;SDS011;7393;51.446;6.800;2023-07-02T05:50:44;25.50;;;13.63;;
14613;SDS011;7393;51.446;6.800;2023-07-02T05:53:11;21.60;;;13.37;;
14613;SDS011;7393;51.446;6.800;2023-07-02T05:55:39;22.90;;;13.20;;
14613;SDS011;7393;51.446;6.800;2023-07-02T05:58:06;22.53;;;13.37;;
14613;SDS011;7393;51.446;6.800;2023-07-02T06:00:33;24.07;;;12.87;;
14613;SDS011;7393;51.446;6.800;2023-07-02T06:03:00;19.40;;;12.17;;
14613;SDS011;7393;51.446;6.800;2023-07-02T06:05:27;22.90;;;12.43;;
14613;SDS011;7393;51.446;6.800;2023-07-02T06:07:53;24.63;;;13.47;;
14613;SDS011;7393;51.446;6.800;2023-07-02T06:10:21;25.93;;;12.70;;
14613;SDS011;7393;51.446;6.800;2023-07-02T06:12:49;20.90;;;11.87;;
14613;SDS011;7393;51.446;6.800;2023-07-02T06:15:17;19.93;;;11.77;;
14613;SDS011;7393;51.446;6.800;2023-07-02T06:17:43;17.67;;;11.83;;
14613;SDS011;7393;51.446;6.800;2023-07-02T06:20:11;24.30;;;12.93;;
14613;SDS011;7393;51.446;6.800;2023-07-02T06:22:38;20.03;;;11.67;;
14613;SDS011;7393;51.446;6.800;2023-07-02T06:25:05;22.10;;;12.13;;
14613;SDS011;7393;51.446;6.800;2023-07-02T06:27:33;20.10;;;10.77;;
14613;SDS011;7393;51.446;6.800;2023-07-02T06:30:01;18.03;;;11.27;;
14613;SDS011;7393;51.446;6.800;2023-07-02T06:32:28;18.97;;;11.07;;
14613;SDS011;7393;51.446;6.800;2023-07-02T06:34:54;21.90;;;11.07;;
14613;SDS011;7393;51.446;6.800;2023-07-02T06:37:21;19.93;;;11.27;;
14613;SDS011;7393;51.446;6.800;2023-07-02T06:39:48;18.30;;;10.10;;
14613;SDS011;7393;51.446;6.800;2023-07-02T06:42:15;19.53;;;10.33;;
14613;SDS011;7393;51.446;6.800;2023-07-02T06:44:42;19.63;;;10.53;;
14613;SDS011;7393;51.446;6.800;2023-07-02T06:47:10;20.10;;;11.03;;
14613;SDS011;7393;51.446;6.800;2023-07-02T06:49:36;19.60;;;10.50;;
14613;SDS011;7393;51.446;6.800;2023-07-02T06:52:03;19.80;;;10.90;;
14613;SDS011;7393;51.446;6.800;2023-07-02T06:54:30;20.27;;;11.43;;
14613;SDS011;7393;51.446;6.800;2023-07-02T06:56:57;21.43;;;11.23;;
14613;SDS011;7393;51.446;6.800;2023-07-02T06:59:24;20.60;;;10.17;;
14613;SDS011;7393;51.446;6.800;2023-07-02T07:01:51;22.00;;;11.73;;
14613;SDS011;7393;51.446;6.800;2023-07-02T07:04:19;24.73;;;11.57;;
14613;SDS011;7393;51.446;6.800;2023-07-02T07:06:46;17.87;;;10.70;;
14613;SDS011;7393;51.446;6.800;2023-07-02T07:09:13;18.97;;;10.97;;
14613;SDS011;7393;51.446;6.800;2023-07-02T07:11:40;21.20;;;11.10;;
14613;SDS011;7393;51.446;6.800;2023-07-02T07:14:06;25.60;;;11.80;;
14613;SDS011;7393;51.446;6.800;2023-07-02T07:16:33;22.60;;;11.10;;
14613;SDS011;7393;51.446;6.800;2023-07-02T07:19:00;19.80;;;11.43;;
14613;SDS011;7393;51.446;6.800;2023-07-02T07:21:28;26.17;;;11.33;;
14613;SDS011;7393;51.446;6.800;2023-07-02T07:23:55;19.83;;;10.97;;
14613;SDS011;7393;51.446;6.800;2023-07-02T07:26:22;22.10;;;10.87;;
14613;SDS011;7393;51.446;6.800;2023-07-02T07:28:49;16.13;;;9.63;;
14613;SDS011;7393;51.446;6.800;2023-07-02T07:31:16;17.77;;;9.43;;
14613;SDS011;7393;51.446;6.800;2023-07-02T07:33:43;18.07;;;9.10;;
14613;SDS011;7393;51.446;6.800;2023-07-02T07:36:09;18.43;;;9.00;;
14613;SDS011;7393;51.446;6.800;2023-07-02T07:38:38;15.03;;;8.30;;
14613;SDS011;7393;51.446;6.800;2023-07-02T07:41:04;15.30;;;8.30;;
14613;SDS011;7393;51.446;6.800;2023-07-02T07:43:31;13.97;;;7.57;;
14613;SDS011;7393;51.446;6.800;2023-07-02T07:45:58;15.97;;;8.40;;
14613;SDS011;7393;51.446;6.800;2023-07-02T07:48:25;16.60;;;8.57;;
14613;SDS011;7393;51.446;6.800;2023-07-02T07:50:52;18.27;;;8.63;;
14613;SDS011;7393;51.446;6.800;2023-07-02T07:53:18;18.33;;;8.33;;
14613;SDS011;7393;51.446;6.800;2023-07-02T07:55:47;16.10;;;8.10;;
14613;SDS011;7393;51.446;6.800;2023-07-02T07:58:14;17.50;;;8.47;;
14613;SDS011;7393;51.446;6.800;2023-07-02T08:00:40;14.83;;;8.10;;
14613;SDS011;7393;51.446;6.800;2023-07-02T08:03:09;14.87;;;7.70;;
14613;SDS011;7393;51.446;6.800;2023-07-02T08:05:36;16.60;;;7.90;;
14613;SDS011;7393;51.446;6.800;2023-07-02T08:08:03;16.43;;;7.73;;
14613;SDS011;7393;51.446;6.800;2023-07-02T08:10:30;14.50;;;7.80;;
14613;SDS011;7393;51.446;6.800;2023-07-02T08:12:58;13.00;;;7.40;;
14613;SDS011;7393;51.446;6.800;2023-07-02T08:15:25;11.40;;;6.77;;
14613;SDS011;7393;51.446;6.800;2023-07-02T08:17:52;13.40;;;6.80;;
14613;SDS011;7393;51.446;6.800;2023-07-02T08:20:22;15.47;;;7.23;;
14613;SDS011;7393;51.446;6.800;2023-07-02T08:22:49;10.17;;;5.60;;
14613;SDS011;7393;51.446;6.800;2023-07-02T08:25:16;11.53;;;6.37;;
14613;SDS011;7393;51.446;6.800;2023-07-02T08:27:43;13.47;;;6.33;;
14613;SDS011;7393;51.446;6.800;2023-07-02T08:30:12;14.17;;;6.83;;
14613;SDS011;7393;51.446;6.800;2023-07-02T08:32:38;10.40;;;6.00;;
14613;SDS011;7393;51.446;6.800;2023-07-02T08:35:05;13.87;;;6.67;;
14613;SDS011;7393;51.446;6.800;2023-07-02T08:37:32;13.37;;;6.53;;
14613;SDS011;7393;51.446;6.800;2023-07-02T08:39:59;9.80;;;6.00;;
14613;SDS011;7393;51.446;6.800;2023-07-02T08:42:26;13.77;;;5.97;;
14613;SDS011;7393;51.446;6.800;2023-07-02T08:44:54;10.93;;;6.17;;
14613;SDS011;7393;51.446;6.800;2023-07-02T08:47:24;9.40;;;5.43;;
14613;SDS011;7393;51.446;6.800;2023-07-02T08:49:51;12.83;;;6.20;;
14613;SDS011;7393;51.446;6.800;2023-07-02T08:52:18;11.87;;;5.50;;
14613;SDS011;7393;51.446;6.800;2023-07-02T08:54:45;10.77;;;5.90;;
14613;SDS011;7393;51.446;6.800;2023-07-02T08:57:11;10.30;;;5.50;;
14613;SDS011;7393;51.446;6.800;2023-07-02T08:59:38;11.47;;;5.97;;
14613;SDS011;7393;51.446;6.800;2023-07-02T09:02:05;13.27;;;5.43;;
14613;SDS011;7393;51.446;6.800;2023-07-02T09:04:34;13.33;;;5.90;;
14613;SDS011;7393;51.446;6.800;2023-07-02T09:07:04;12.40;;;6.47;;
14613;SDS011;7393;51.446;6.800;2023-07-02T09:09:31;11.97;;;6.30;;
14613;SDS011;7393;51.446;6.800;2023-07-02T09:11:58;11.07;;;6.17;;
14613;SDS011;7393;51.446;6.800;2023-07-02T09:14:26;12.03;;;6.13;;
14613;SDS011;7393;51.446;6.800;2023-07-02T09:17:00;10.83;;;6.00;;
14613;SDS011;7393;51.446;6.800;2023-07-02T09:19:28;12.87;;;6.77;;
14613;SDS011;7393;51.446;6.800;2023-07-02T09:21:57;10.27;;;6.00;;
14613;SDS011;7393;51.446;6.800;2023-07-02T09:24:25;13.57;;;6.67;;
14613;SDS011;7393;51.446;6.800;2023-07-02T09:26:53;11.53;;;6.20;;
14613;SDS011;7393;51.446;6.800;2023-07-02T09:29:21;15.17;;;6.60;;
14613;SDS011;7393;51.446;6.800;2023-07-02T09:31:49;11.63;;;6.63;;
14613;SDS011;7393;51.446;6.800;2023-07-02T09:34:16;11.03;;;6.60;;
14613;SDS011;7393;51.446;6.800;2023-07-02T09:36:43;14.60;;;6.50;;
14613;SDS011;7393;51.446;6.800;2023-07-02T09:39:12;11.70;;;6.17;;
14613;SDS011;7393;51.446;6.800;2023-07-02T09:41:40;13.97;;;7.07;;
14613;SDS011;7393;51.446;6.800;2023-07-02T09:44:08;13.87;;;7.07;;
14613;SDS011;7393;51.446;6.800;2023-07-02T09:46:36;12.80;;;6.70;;
14613;SDS011;7393;51.446;6.800;2023-07-02T09:49:06;15.03;;;6.67;;
14613;SDS011;7393;51.446;6.800;2023-07-02T09:51:40;13.17;;;6.43;;
14613;SDS011;7393;51.446;6.800;2023-07-02T09:54:08;13.27;;;6.37;;
14613;SDS011;7393;51.446;6.800;2023-07-02T09:56:36;11.17;;;5.83;;
14613;SDS011;7393;51.446;6.800;2023-07-02T09:59:03;12.07;;;6.30;;
14613;SDS011;7393;51.446;6.800;2023-07-02T10:01:30;10.50;;;5.97;;
14613;SDS011;7393;51.446;6.800;2023-07-02T10:03:57;9.93;;;5.67;;
14613;SDS011;7393;51.446;6.800;2023-07-02T10:06:24;10.50;;;6.10;;
14613;SDS011;7393;51.446;6.800;2023-07-02T10:08:53;10.83;;;5.50;;
14613;SDS011;7393;51.446;6.800;2023-07-02T10:11:32;8.20;;;5.57;;
14613;SDS011;7393;51.446;6.800;2023-07-02T10:14:01;9.57;;;5.70;;
14613;SDS011;7393;51.446;6.800;2023-07-02T10:16:28;10.80;;;5.73;;
14613;SDS011;7393;51.446;6.800;2023-07-02T10:19:07;8.50;;;5.23;;
14613;SDS011;7393;51.446;6.800;2023-07-02T10:21:34;12.43;;;6.27;;
14613;SDS011;7393;51.446;6.800;2023-07-02T10:24:08;11.40;;;5.60;;
14613;SDS011;7393;51.446;6.800;2023-07-02T10:26:36;9.97;;;5.50;;
14613;SDS011;7393;51.446;6.800;2023-07-02T10:29:05;12.77;;;5.50;;
14613;SDS011;7393;51.446;6.800;2023-07-02T10:31:32;8.63;;;5.40;;
14613;SDS011;7393;51.446;6.800;2023-07-02T10:33:59;12.90;;;6.03;;
14613;SDS011;7393;51.446;6.800;2023-07-02T10:36:26;9.17;;;5.33;;
14613;SDS011;7393;51.446;6.800;2023-07-02T10:38:53;8.83;;;5.27;;
14613;SDS011;7393;51.446;6.800;2023-07-02T10:41:23;12.00;;;5.67;;
14613;SDS011;7393;51.446;6.800;2023-07-02T10:43:51;9.93;;;5.43;;
14613;SDS011;7393;51.446;6.800;2023-07-02T10:46:20;12.20;;;5.70;;
14613;SDS011;7393;51.446;6.800;2023-07-02T10:48:50;9.10;;;5.70;;
14613;SDS011;7393;51.446;6.800;2023-07-02T10:51:18;10.23;;;5.30;;
14613;SDS011;7393;51.446;6.800;2023-07-02T10:53:46;9.90;;;5.27;;
14613;SDS011;7393;51.446;6.800;2023-07-02T10:56:21;11.10;;;5.50;;
14613;SDS011;7393;51.446;6.800;2023-07-02T10:58:48;10.17;;;5.53;;
14613;SDS011;7393;51.446;6.800;2023-07-02T11:01:22;8.10;;;5.13;;
14613;SDS011;7393;51.446;6.800;2023-07-02T11:03:57;10.70;;;5.43;;
14613;SDS011;7393;51.446;6.800;2023-07-02T11:06:25;10.67;;;5.50;;
14613;SDS011;7393;51.446;6.800;2023-07-02T11:08:52;11.70;;;5.23;;
14613;SDS011;7393;51.446;6.800;2023-07-02T11:11:20;11.27;;;5.63;;
14613;SDS011;7393;51.446;6.800;2023-07-02T11:13:48;11.20;;;6.23;;
14613;SDS011;7393;51.446;6.800;2023-07-02T11:16:19;14.10;;;5.40;;
14613;SDS011;7393;51.446;6.800;2023-07-02T11:18:50;12.10;;;5.80;;
14613;SDS011;7393;51.446;6.800;2023-07-02T11:21:18;10.70;;;5.47;;
14613;SDS011;7393;51.446;6.800;2023-07-02T11:23:44;8.23;;;5.20;;
14613;SDS011;7393;51.446;6.800;2023-07-02T11:26:11;9.43;;;5.00;;
14613;SDS011;7393;51.446;6.800;2023-07-02T11:28:47;8.83;;;5.00;;
14613;SDS011;7393;51.446;6.800;2023-07-02T11:31:23;11.90;;;4.77;;
14613;SDS011;7393;51.446;6.800;2023-07-02T11:33:53;10.33;;;5.30;;
14613;SDS011;7393;51.446;6.800;2023-07-02T11:36:21;9.43;;;5.20;;
14613;SDS011;7393;51.446;6.800;2023-07-02T11:38:49;9.90;;;5.40;;
14613;SDS011;7393;51.446;6.800;2023-07-02T11:41:16;10.73;;;4.77;;
14613;SDS011;7393;51.446;6.800;2023-07-02T11:43:44;12.07;;;5.70;;
14613;SDS011;7393;51.446;6.800;2023-07-02T11:46:10;9.40;;;5.10;;
14613;SDS011;7393;51.446;6.800;2023-07-02T11:48:37;10.07;;;4.70;;
14613;SDS011;7393;51.446;6.800;2023-07-02T11:51:05;8.73;;;5.20;;
14613;SDS011;7393;51.446;6.800;2023-07-02T11:53:32;12.90;;;5.10;;
14613;SDS011;7393;51.446;6.800;2023-07-02T11:55:59;9.53;;;5.13;;
14613;SDS011;7393;51.446;6.800;2023-07-02T11:58:26;11.00;;;5.50;;
14613;SDS011;7393;51.446;6.800;2023-07-02T12:00:52;8.17;;;4.83;;
14613;SDS011;7393;51.446;6.800;2023-07-02T12:03:19;7.33;;;4.57;;
14613;SDS011;7393;51.446;6.800;2023-07-02T12:05:46;8.00;;;4.70;;
14613;SDS011;7393;51.446;6.800;2023-07-02T12:08:14;10.37;;;5.20;;
14613;SDS011;7393;51.446;6.800;2023-07-02T12:10:41;10.00;;;5.23;;
14613;SDS011;7393;51.446;6.800;2023-07-02T12:13:08;8.60;;;4.93;;
14613;SDS011;7393;51.446;6.800;2023-07-02T12:15:34;7.37;;;4.50;;
14613;SDS011;7393;51.446;6.800;2023-07-02T12:18:01;10.77;;;5.20;;
14613;SDS011;7393;51.446;6.800;2023-07-02T12:20:28;8.30;;;5.13;;
14613;SDS011;7393;51.446;6.800;2023-07-02T12:22:55;9.30;;;5.80;;
14613;SDS011;7393;51.446;6.800;2023-07-02T12:25:24;9.27;;;5.00;;
14613;SDS011;7393;51.446;6.800;2023-07-02T12:27:51;10.13;;;5.60;;
14613;SDS011;7393;51.446;6.800;2023-07-02T12:30:18;8.37;;;5.17;;
14613;SDS011;7393;51.446;6.800;2023-07-02T12:32:45;7.57;;;4.90;;
14613;SDS011;7393;51.446;6.800;2023-07-02T12:35:12;9.80;;;5.40;;
14613;SDS011;7393;51.446;6.800;2023-07-02T12:37:45;10.43;;;4.90;;
14613;SDS011;7393;51.446;6.800;2023-07-02T12:40:12;8.07;;;5.33;;
14613;SDS011;7393;51.446;6.800;2023-07-02T12:42:42;10.93;;;5.40;;
14613;SDS011;7393;51.446;6.800;2023-07-02T12:45:09;13.60;;;5.57;;
14613;SDS011;7393;51.446;6.800;2023-07-02T12:47:37;10.63;;;5.57;;
14613;SDS011;7393;51.446;6.800;2023-07-02T12:50:04;8.87;;;5.37;;
14613;SDS011;7393;51.446;6.800;2023-07-02T12:52:31;10.77;;;5.97;;
14613;SDS011;7393;51.446;6.800;2023-07-02T12:54:59;9.87;;;5.60;;
14613;SDS011;7393;51.446;6.800;2023-07-02T12:57:26;9.53;;;5.70;;
14613;SDS011;7393;51.446;6.800;2023-07-02T12:59:54;11.33;;;5.93;;
14613;SDS011;7393;51.446;6.800;2023-07-02T13:02:21;11.67;;;6.23;;
14613;SDS011;7393;51.446;6.800;2023-07-02T13:04:48;9.50;;;6.10;;
14613;SDS011;7393;51.446;6.800;2023-07-02T13:07:15;10.53;;;6.30;;
14613;SDS011;7393;51.446;6.800;2023-07-02T13:09:42;12.57;;;6.30;;
14613;SDS011;7393;51.446;6.800;2023-07-02T13:12:10;11.30;;;7.03;;
14613;SDS011;7393;51.446;6.800;2023-07-02T13:14:37;11.30;;;6.33;;
14613;SDS011;7393;51.446;6.800;2023-07-02T13:17:05;11.40;;;6.23;;
14613;SDS011;7393;51.446;6.800;2023-07-02T13:19:32;13.53;;;6.13;;
14613;SDS011;7393;51.446;6.800;2023-07-02T13:22:00;12.70;;;6.83;;
14613;SDS011;7393;51.446;6.800;2023-07-02T13:24:28;9.87;;;6.17;;
14613;SDS011;7393;51.446;6.800;2023-07-02T13:26:59;11.10;;;6.47;;
14613;SDS011;7393;51.446;6.800;2023-07-02T13:29:28;13.93;;;6.87;;
14613;SDS011;7393;51.446;6.800;2023-07-02T13:31:55;11.07;;;6.20;;
14613;SDS011;7393;51.446;6.800;2023-07-02T13:34:24;13.00;;;6.23;;
14613;SDS011;7393;51.446;6.800;2023-07-02T13:36:50;12.57;;;6.43;;
14613;SDS011;7393;51.446;6.800;2023-07-02T13:39:17;9.87;;;6.73;;
14613;SDS011;7393;51.446;6.800;2023-07-02T13:41:44;11.70;;;6.53;;
14613;SDS011;7393;51.446;6.800;2023-07-02T13:44:11;13.90;;;6.93;;
14613;SDS011;7393;51.446;6.800;2023-07-02T13:46:38;11.33;;;6.57;;
14613;SDS011;7393;51.446;6.800;2023-07-02T13:49:04;13.52;;;6.72;;
14613;SDS011;7393;51.446;6.800;2023-07-02T13:51:32;11.30;;;6.72;;
14613;SDS011;7393;51.446;6.800;2023-07-02T13:53:59;13.93;;;6.53;;
14613;SDS011;7393;51.446;6.800;2023-07-02T13:56:26;12.50;;;6.47;;
14613;SDS011;7393;51.446;6.800;2023-07-02T13:59:04;12.57;;;7.10;;
14613;SDS011;7393;51.446;6.800;2023-07-02T14:01:31;10.25;;;5.72;;
14613;SDS011;7393;51.446;6.800;2023-07-02T14:03:59;11.50;;;6.68;;
14613;SDS011;7393;51.446;6.800;2023-07-02T14:06:26;12.38;;;6.88;;
14613;SDS011;7393;51.446;6.800;2023-07-02T14:08:53;11.98;;;7.07;;
14613;SDS011;7393;51.446;6.800;2023-07-02T14:11:20;11.97;;;7.20;;
14613;SDS011;7393;51.446;6.800;2023-07-02T14:13:53;13.63;;;6.80;;
14613;SDS011;7393;51.446;6.800;2023-07-02T14:16:21;12.80;;;6.93;;
14613;SDS011;7393;51.446;6.800;2023-07-02T14:18:49;16.10;;;7.67;;
14613;SDS011;7393;51.446;6.800;2023-07-02T14:21:15;12.57;;;6.73;;
14613;SDS011;7393;51.446;6.800;2023-07-02T14:23:42;12.07;;;6.80;;
14613;SDS011;7393;51.446;6.800;2023-07-02T14:26:10;11.90;;;6.33;;
14613;SDS011;7393;51.446;6.800;2023-07-02T14:28:37;13.13;;;7.17;;
14613;SDS011;7393;51.446;6.800;2023-07-02T14:31:05;15.43;;;7.27;;
14613;SDS011;7393;51.446;6.800;2023-07-02T14:33:34;11.53;;;6.70;;
14613;SDS011;7393;51.446;6.800;2023-07-02T14:36:03;15.43;;;7.23;;
14613;SDS011;7393;51.446;6.800;2023-07-02T14:38:30;13.20;;;6.87;;
14613;SDS011;7393;51.446;6.800;2023-07-02T14:40:59;9.40;;;6.47;;
14613;SDS011;7393;51.446;6.800;2023-07-02T14:43:26;11.47;;;7.00;;
14613;SDS011;7393;51.446;6.800;2023-07-02T14:45:55;19.37;;;7.17;;
14613;SDS011;7393;51.446;6.800;2023-07-02T14:48:24;14.47;;;6.80;;
14613;SDS011;7393;51.446;6.800;2023-07-02T14:50:53;14.40;;;7.53;;